createdAt,value
2018-06-12T00:00:49.033Z,10.70
2018-06-12T00:03:29.862Z,13.30
2018-06-12T00:06:03.869Z,12.90
2018-06-12T00:08:37.687Z,13.13
2018-06-12T00:11:11.743Z,11.67
2018-06-12T00:13:45.586Z,14.07
2018-06-12T00:16:19.610Z,14.27
2018-06-12T00:18:53.734Z,13.07
2018-06-12T00:21:27.699Z,13.40
2018-06-12T00:24:02.006Z,13.83
2018-06-12T00:26:35.996Z,12.50
2018-06-12T00:29:09.862Z,13.37
2018-06-12T00:31:43.912Z,12.77
2018-06-12T00:34:18.121Z,12.20
2018-06-12T00:36:52.056Z,12.97
2018-06-12T00:39:25.980Z,13.43
2018-06-12T00:41:59.920Z,13.40
2018-06-12T00:44:34.018Z,12.67
2018-06-12T00:47:08.148Z,13.40
2018-06-12T00:49:42.284Z,13.13
2018-06-12T00:52:16.523Z,12.50
2018-06-12T00:54:50.606Z,14.67
2018-06-12T00:57:24.977Z,14.50
2018-06-12T00:59:58.882Z,13.03
2018-06-12T01:02:32.743Z,13.10
2018-06-12T01:05:06.842Z,14.43
2018-06-12T01:07:40.931Z,14.90
2018-06-12T01:10:15.381Z,15.37
2018-06-12T01:12:49.216Z,15.97
2018-06-12T01:15:23.381Z,18.53
2018-06-12T01:17:57.450Z,17.50
2018-06-12T01:20:31.454Z,18.57
2018-06-12T01:23:05.633Z,18.23
2018-06-12T01:25:39.762Z,16.97
2018-06-12T01:28:13.666Z,15.67
2018-06-12T01:30:47.629Z,17.50
2018-06-12T01:33:21.556Z,16.20
2018-06-12T01:35:55.407Z,18.27
2018-06-12T01:38:29.690Z,17.67
2018-06-12T01:41:03.538Z,19.13
2018-06-12T01:43:37.472Z,17.13
2018-06-12T01:46:11.411Z,17.40
2018-06-12T01:48:45.645Z,18.60
2018-06-12T01:51:19.258Z,18.70
2018-06-12T01:53:53.350Z,18.43
2018-06-12T01:56:27.191Z,18.97
2018-06-12T01:59:01.104Z,18.20
2018-06-12T02:01:35.103Z,19.40
2018-06-12T02:04:09.463Z,19.77
2018-06-12T02:06:43.597Z,18.77
2018-06-12T02:09:17.636Z,18.70
2018-06-12T02:11:51.432Z,19.40
2018-06-12T02:14:25.593Z,20.37
2018-06-12T02:16:59.514Z,19.13
2018-06-12T02:19:33.971Z,18.83
2018-06-12T02:22:07.792Z,18.17
2018-06-12T02:24:42.098Z,19.03
2018-06-12T02:27:15.957Z,19.40
2018-06-12T02:29:49.731Z,20.70
2018-06-12T02:32:24.002Z,19.57
2018-06-12T02:34:58.133Z,20.80
2018-06-12T02:37:32.741Z,20.17
2018-06-12T02:40:07.036Z,19.40
2018-06-12T02:42:40.883Z,20.90
2018-06-12T02:45:14.784Z,19.67
2018-06-12T02:47:48.867Z,19.83
2018-06-12T02:50:22.648Z,17.93
2018-06-12T02:52:56.684Z,17.77
2018-06-12T02:55:30.994Z,17.37
2018-06-12T02:58:05.067Z,17.77
2018-06-12T03:00:38.854Z,16.90
2018-06-12T03:03:13.096Z,17.00
2018-06-12T03:05:46.883Z,16.73
2018-06-12T03:08:20.797Z,15.37
2018-06-12T03:10:54.633Z,15.87
2018-06-12T03:13:28.576Z,17.30
2018-06-12T03:16:02.367Z,16.57
2018-06-12T03:18:36.648Z,15.57
2018-06-12T03:21:10.812Z,13.73
2018-06-12T03:23:44.677Z,14.23
2018-06-12T03:26:18.514Z,15.27
2018-06-12T03:28:52.269Z,14.07
2018-06-12T03:31:26.227Z,15.47
2018-06-12T03:34:00.049Z,13.53
2018-06-12T03:36:33.856Z,14.50
2018-06-12T03:39:07.757Z,14.20
2018-06-12T03:41:41.837Z,13.40
2018-06-12T03:44:16.209Z,14.63
2018-06-12T03:46:50.303Z,15.20
2018-06-12T03:49:23.992Z,13.33
2018-06-12T03:51:57.903Z,14.13
2018-06-12T03:54:31.645Z,14.13
2018-06-12T03:57:05.598Z,14.63
2018-06-12T03:59:39.854Z,13.07
2018-06-12T04:02:14.028Z,14.00
2018-06-12T04:04:48.182Z,13.43
2018-06-12T04:07:22.394Z,13.70
2018-06-12T04:09:56.197Z,12.80
2018-06-12T04:12:30.429Z,13.27
2018-06-12T04:15:04.323Z,11.60
2018-06-12T04:17:38.485Z,13.87
2018-06-12T04:20:12.373Z,12.77
2018-06-12T04:22:46.368Z,12.70
2018-06-12T04:25:20.501Z,13.17
2018-06-12T04:27:54.354Z,12.50
2018-06-12T04:30:28.403Z,11.20
2018-06-12T04:33:02.287Z,12.27
2018-06-12T04:35:36.387Z,10.73
2018-06-12T04:38:11.303Z,11.47
2018-06-12T04:40:45.352Z,11.57
2018-06-12T04:43:19.453Z,11.63
2018-06-12T04:45:53.598Z,11.37
2018-06-12T04:48:27.233Z,10.37
2018-06-12T04:51:01.184Z,10.17
2018-06-12T04:53:35.062Z,9.60
2018-06-12T04:56:08.990Z,10.33
2018-06-12T04:58:43.338Z,10.00
2018-06-12T05:01:17.365Z,11.17
2018-06-12T05:03:51.369Z,10.47
2018-06-12T05:06:25.657Z,10.43
2018-06-12T05:08:59.700Z,10.47
2018-06-12T05:11:33.739Z,9.80
2018-06-12T05:14:07.702Z,9.67
2018-06-12T05:16:41.467Z,10.03
2018-06-12T05:19:15.899Z,10.63
2018-06-12T05:21:50.033Z,9.53
2018-06-12T05:24:23.937Z,8.87
2018-06-12T05:26:58.189Z,8.73
2018-06-12T05:29:32.314Z,8.70
2018-06-12T05:32:06.423Z,8.90
2018-06-12T05:34:40.561Z,9.77
2018-06-12T05:37:14.799Z,8.60
2018-06-12T05:39:48.919Z,8.50
2018-06-12T05:42:23.392Z,8.27
2018-06-12T05:44:57.145Z,8.23
2018-06-12T05:47:31.293Z,8.17
2018-06-12T05:50:05.082Z,7.80
2018-06-12T05:52:38.952Z,8.20
2018-06-12T05:55:13.088Z,8.20
2018-06-12T05:57:46.944Z,7.60
2018-06-12T06:00:20.914Z,7.40
2018-06-12T06:02:54.803Z,7.47
2018-06-12T06:05:28.746Z,7.40
2018-06-12T06:08:02.732Z,6.60
2018-06-12T06:10:36.606Z,6.60
2018-06-12T06:13:10.680Z,6.70
2018-06-12T06:15:44.573Z,6.03
2018-06-12T06:18:19.484Z,5.37
2018-06-12T06:20:53.622Z,5.83
2018-06-12T06:23:27.442Z,5.73
2018-06-12T06:26:01.473Z,5.33
2018-06-12T06:28:35.435Z,4.80
2018-06-12T06:31:09.607Z,5.40
2018-06-12T06:33:43.422Z,5.17
2018-06-12T06:36:17.545Z,4.80
2018-06-12T06:38:51.344Z,4.83
2018-06-12T06:41:25.589Z,3.77
2018-06-12T06:43:59.694Z,4.13
2018-06-12T06:46:37.732Z,4.07
2018-06-12T06:49:11.854Z,4.20
2018-06-12T06:51:45.967Z,3.73
2018-06-12T06:54:19.925Z,3.87
2018-06-12T06:56:53.798Z,4.27
2018-06-12T06:59:28.078Z,3.60
2018-06-12T07:02:02.082Z,4.00
2018-06-12T07:04:36.732Z,3.40
2018-06-12T07:07:10.737Z,3.77
2018-06-12T07:09:44.699Z,3.83
2018-06-12T07:12:19.206Z,4.67
2018-06-12T07:14:53.539Z,3.63
2018-06-12T07:17:27.925Z,3.70
2018-06-12T07:20:02.480Z,3.40
2018-06-12T07:22:36.377Z,3.80
2018-06-12T07:27:51.022Z,3.50
2018-06-12T07:30:24.996Z,3.80
2018-06-12T07:32:59.254Z,3.70
2018-06-12T07:35:33.162Z,3.50
2018-06-12T07:38:07.414Z,3.63
2018-06-12T07:40:41.332Z,3.37
2018-06-12T07:43:15.499Z,3.40
2018-06-12T07:45:49.499Z,3.63
2018-06-12T07:48:23.362Z,3.30
2018-06-12T07:50:57.374Z,3.67
2018-06-12T07:53:31.505Z,3.20
2018-06-12T07:56:09.054Z,3.27
2018-06-12T07:58:43.862Z,3.50
2018-06-12T08:01:17.765Z,3.53
2018-06-12T08:03:52.035Z,3.50
2018-06-12T08:06:26.021Z,3.30
2018-06-12T08:09:00.063Z,3.10
2018-06-12T08:11:34.789Z,3.50
2018-06-12T08:14:08.849Z,3.80
2018-06-12T08:16:43.565Z,3.20
2018-06-12T08:19:17.973Z,3.17
2018-06-12T08:21:51.925Z,3.40
2018-06-12T08:24:25.838Z,3.53
2018-06-12T08:26:59.880Z,3.20
2018-06-12T08:29:35.060Z,3.50
2018-06-12T08:32:09.159Z,3.73
2018-06-12T08:34:43.383Z,2.60
2018-06-12T08:37:17.465Z,3.00
2018-06-12T08:39:51.819Z,3.13
2018-06-12T08:42:25.949Z,3.00
2018-06-12T08:45:00.145Z,3.10
2018-06-12T08:47:34.763Z,3.10
2018-06-12T08:50:08.794Z,2.63
2018-06-12T08:52:42.913Z,2.90
2018-06-12T08:55:16.885Z,3.00
2018-06-12T08:57:50.854Z,2.90
2018-06-12T09:00:31.715Z,3.30
2018-06-12T09:03:05.936Z,3.03
2018-06-12T09:05:40.269Z,3.05
2018-06-12T09:08:14.344Z,3.12
2018-06-12T09:10:48.270Z,3.72
2018-06-12T09:13:22.285Z,3.02
2018-06-12T09:15:56.021Z,3.30
2018-06-12T09:18:30.049Z,2.65
2018-06-12T09:21:04.216Z,3.55
2018-06-12T09:23:42.774Z,3.62
2018-06-12T09:26:16.644Z,2.70
2018-06-12T09:28:50.370Z,2.75
2018-06-12T09:31:24.468Z,2.98
2018-06-12T09:33:58.449Z,2.90
2018-06-12T09:36:34.089Z,2.77
2018-06-12T09:39:08.970Z,3.12
2018-06-12T09:41:42.929Z,3.40
2018-06-12T09:44:16.975Z,3.08
2018-06-12T09:46:50.945Z,3.35
2018-06-12T09:49:24.904Z,3.50
2018-06-12T09:51:58.602Z,3.22
2018-06-12T09:54:32.563Z,3.10
2018-06-12T09:57:06.350Z,3.02
2018-06-12T09:59:40.643Z,3.40
2018-06-12T10:02:14.610Z,2.95
2018-06-12T10:04:48.847Z,3.35
2018-06-12T10:07:29.624Z,3.08
2018-06-12T10:10:03.759Z,3.25
2018-06-12T10:12:37.799Z,3.65
2018-06-12T10:15:11.913Z,3.00
2018-06-12T10:17:45.823Z,3.00
2018-06-12T10:20:19.941Z,3.50
2018-06-12T10:22:53.771Z,2.98
2018-06-12T10:25:27.868Z,3.60
2018-06-12T10:28:02.140Z,3.40
2018-06-12T10:30:36.051Z,3.45
2018-06-12T10:33:10.095Z,3.45
2018-06-12T10:35:44.170Z,3.30
2018-06-12T10:38:18.283Z,3.22
2018-06-12T10:40:52.338Z,3.75
2018-06-12T10:43:26.539Z,3.70
2018-06-12T10:46:00.404Z,3.95
2018-06-12T10:48:34.276Z,3.80
2018-06-12T10:51:08.526Z,3.58
2018-06-12T10:53:42.784Z,3.30
2018-06-12T10:56:16.853Z,3.40
2018-06-12T10:58:50.988Z,3.20
2018-06-12T11:01:25.079Z,3.02
2018-06-12T11:03:59.299Z,3.72
2018-06-12T11:06:33.496Z,3.22
2018-06-12T11:09:07.420Z,2.90
2018-06-12T11:11:41.631Z,3.27
2018-06-12T11:14:15.604Z,3.47
2018-06-12T11:16:49.663Z,3.30
2018-06-12T11:19:23.709Z,3.42
2018-06-12T11:21:57.991Z,3.45
2018-06-12T11:24:32.130Z,3.00
2018-06-12T11:27:05.843Z,3.10
2018-06-12T11:29:39.960Z,3.20
2018-06-12T11:32:13.909Z,3.33
2018-06-12T11:34:47.990Z,3.67
2018-06-12T11:37:22.148Z,3.33
2018-06-12T11:39:56.159Z,3.47
2018-06-12T11:42:30.491Z,3.42
2018-06-12T11:45:04.858Z,3.95
2018-06-12T11:47:38.710Z,3.22
2018-06-12T11:50:12.688Z,3.90
2018-06-12T11:52:47.380Z,3.45
2018-06-12T11:55:21.373Z,3.55
2018-06-12T11:57:55.555Z,3.90
2018-06-12T12:00:29.823Z,3.55
2018-06-12T12:03:04.018Z,3.80
2018-06-12T12:05:38.773Z,3.45
2018-06-12T12:08:13.155Z,3.75
2018-06-12T12:10:47.267Z,3.62
2018-06-12T12:13:21.393Z,4.00
2018-06-12T12:15:55.492Z,4.50
2018-06-12T12:18:29.619Z,3.83
2018-06-12T12:21:03.872Z,4.30
2018-06-12T12:23:38.296Z,4.30
2018-06-12T12:26:12.098Z,4.30
2018-06-12T12:28:46.294Z,3.50
2018-06-12T12:31:20.000Z,4.17
2018-06-12T12:33:53.934Z,4.10
2018-06-12T12:36:27.939Z,4.33
2018-06-12T12:39:02.349Z,4.05
2018-06-12T12:41:36.453Z,4.37
2018-06-12T12:44:10.429Z,5.12
2018-06-12T12:46:44.489Z,5.12
2018-06-12T12:49:22.578Z,4.37
2018-06-12T12:51:56.604Z,4.40
2018-06-12T12:54:37.358Z,4.12
2018-06-12T12:57:11.574Z,4.80
2018-06-12T12:59:45.489Z,3.70
2018-06-12T13:02:19.929Z,5.22
2018-06-12T13:04:54.193Z,4.62
2018-06-12T13:07:28.335Z,4.45
2018-06-12T13:10:02.315Z,5.00
2018-06-12T13:12:36.258Z,4.40
2018-06-12T13:15:10.426Z,4.10
2018-06-12T13:17:44.530Z,4.12
2018-06-12T13:20:19.119Z,5.50
2018-06-12T13:22:53.325Z,3.98
2018-06-12T13:25:27.599Z,4.42
2018-06-12T13:28:01.859Z,5.10
2018-06-12T13:30:35.883Z,4.75
2018-06-12T13:33:10.040Z,4.70
2018-06-12T13:35:44.046Z,4.40
2018-06-12T13:38:18.547Z,4.72
2018-06-12T13:40:52.641Z,4.87
2018-06-12T13:43:26.455Z,5.03
2018-06-12T13:46:00.545Z,4.53
2018-06-12T13:48:34.584Z,5.28
2018-06-12T13:51:09.603Z,4.17
2018-06-12T13:53:43.435Z,4.25
2018-06-12T13:56:18.655Z,4.47
2018-06-12T13:58:52.774Z,4.50
2018-06-12T14:01:27.399Z,4.90
2018-06-12T14:04:01.622Z,4.70
2018-06-12T14:06:35.541Z,4.50
2018-06-12T14:09:09.674Z,4.97
2018-06-12T14:11:44.194Z,4.30
2018-06-12T14:14:18.358Z,4.97
2018-06-12T14:16:52.268Z,4.55
2018-06-12T14:19:26.186Z,4.33
2018-06-12T14:22:00.239Z,4.20
2018-06-12T14:24:34.491Z,4.30
2018-06-12T14:27:08.622Z,4.05
2018-06-12T14:29:42.819Z,4.10
2018-06-12T14:32:17.060Z,3.98
2018-06-12T14:34:51.055Z,4.20
2018-06-12T14:37:25.150Z,4.47
2018-06-12T14:39:59.724Z,4.33
2018-06-12T14:42:33.954Z,4.47
2018-06-12T14:45:07.901Z,4.60
2018-06-12T14:47:42.540Z,3.80
2018-06-12T14:50:16.574Z,3.67
2018-06-12T14:52:50.690Z,4.50
2018-06-12T14:55:24.780Z,4.55
2018-06-12T14:57:59.160Z,4.45
2018-06-12T15:00:33.315Z,4.45
2018-06-12T15:03:07.149Z,4.47
2018-06-12T15:05:41.253Z,4.85
2018-06-12T15:08:15.548Z,4.17
2018-06-12T15:10:49.764Z,4.83
2018-06-12T15:13:24.252Z,4.37
2018-06-12T15:15:58.131Z,4.85
2018-06-12T15:18:32.244Z,5.22
2018-06-12T15:21:06.285Z,4.37
2018-06-12T15:23:40.720Z,4.53
2018-06-12T15:26:15.000Z,5.15
2018-06-12T15:28:48.961Z,5.28
2018-06-12T15:31:23.124Z,5.35
2018-06-12T15:33:57.141Z,6.40
2018-06-12T15:36:31.342Z,5.80
2018-06-12T15:39:07.406Z,6.78
2018-06-12T15:41:41.862Z,6.10
2018-06-12T15:44:16.037Z,6.22
2018-06-12T15:46:50.170Z,6.28
2018-06-12T15:49:24.144Z,6.28
2018-06-12T15:52:02.432Z,7.15
2018-06-12T15:54:36.664Z,6.28
2018-06-12T15:57:10.774Z,6.60
2018-06-12T15:59:44.920Z,6.08
2018-06-12T16:02:19.397Z,6.55
2018-06-12T16:04:53.759Z,5.85
2018-06-12T16:07:28.176Z,6.25
2018-06-12T16:10:02.481Z,6.53
2018-06-12T16:12:36.605Z,6.00
2018-06-12T16:15:11.365Z,6.47
2018-06-12T16:17:46.180Z,6.03
2018-06-12T16:20:20.325Z,6.10
2018-06-12T16:22:54.590Z,6.42
2018-06-12T16:25:29.099Z,6.35
2018-06-12T16:28:03.348Z,6.17
2018-06-12T16:30:38.032Z,6.83
2018-06-12T16:33:12.292Z,6.12
2018-06-12T16:35:46.596Z,7.37
2018-06-12T16:38:21.404Z,6.80
2018-06-12T16:40:55.970Z,7.10
2018-06-12T16:43:30.023Z,7.35
2018-06-12T16:46:04.623Z,7.50
2018-06-12T16:48:39.844Z,7.70
2018-06-12T16:51:13.936Z,7.50
2018-06-12T16:53:48.380Z,8.30
2018-06-12T16:56:22.573Z,7.72
2018-06-12T16:58:56.761Z,8.45
2018-06-12T17:01:30.964Z,8.55
2018-06-12T17:04:05.202Z,7.80
2018-06-12T17:06:39.155Z,7.83
2018-06-12T17:09:13.515Z,8.38
2018-06-12T17:11:47.903Z,8.13
2018-06-12T17:14:21.875Z,8.37
2018-06-12T17:16:56.326Z,8.55
2018-06-12T17:19:30.739Z,7.75
2018-06-12T17:22:05.197Z,9.00
2018-06-12T17:24:39.074Z,7.72
2018-06-12T17:27:13.147Z,8.07
2018-06-12T17:29:47.107Z,8.10
2018-06-12T17:32:21.311Z,8.13
2018-06-12T17:34:55.363Z,7.70
2018-06-12T17:37:31.991Z,7.75
2018-06-12T17:40:06.225Z,8.08
2018-06-12T17:42:40.314Z,7.50
2018-06-12T17:45:14.414Z,7.27
2018-06-12T17:47:49.560Z,8.40
2018-06-12T17:50:24.214Z,9.10
2018-06-12T17:52:58.297Z,9.43
2018-06-12T17:55:32.263Z,8.40
2018-06-12T17:58:06.406Z,8.63
2018-06-12T18:00:40.668Z,8.87
2018-06-12T18:03:14.699Z,8.40
2018-06-12T18:05:49.881Z,9.20
2018-06-12T18:08:24.170Z,9.83
2018-06-12T18:10:58.090Z,9.87
2018-06-12T18:13:32.655Z,11.00
2018-06-12T18:16:06.945Z,11.03
2018-06-12T18:18:41.051Z,11.50
2018-06-12T18:21:15.148Z,11.77
2018-06-12T18:23:49.429Z,11.20
2018-06-12T18:26:23.718Z,10.27
2018-06-12T18:28:58.211Z,10.37
2018-06-12T18:31:32.548Z,12.13
2018-06-12T18:34:06.775Z,11.57
2018-06-12T18:36:40.738Z,12.43
2018-06-12T18:39:15.265Z,11.63
2018-06-12T18:41:49.655Z,11.37
2018-06-12T18:44:24.084Z,12.20
2018-06-12T18:46:58.429Z,12.23
2018-06-12T18:49:32.886Z,11.48
2018-06-12T18:52:07.182Z,10.93
2018-06-12T18:54:41.753Z,10.33
2018-06-12T18:57:16.274Z,10.13
2018-06-12T18:59:50.600Z,10.80
2018-06-12T19:02:24.971Z,9.90
2018-06-12T19:04:59.322Z,10.87
2018-06-12T19:07:33.198Z,9.33
2018-06-12T19:10:07.730Z,7.93
2018-06-12T19:12:42.345Z,8.57
2018-06-12T19:15:17.470Z,7.20
2018-06-12T19:17:51.652Z,6.00
2018-06-12T19:20:26.429Z,6.07
2018-06-12T19:23:00.802Z,5.60
2018-06-12T19:25:35.062Z,5.93
2018-06-12T19:28:09.151Z,5.30
2018-06-12T19:30:43.653Z,5.03
2018-06-12T19:33:18.442Z,5.37
2018-06-12T19:35:53.165Z,5.37
2018-06-12T19:38:27.331Z,4.90
2018-06-12T19:41:01.395Z,5.70
2018-06-12T19:43:36.132Z,5.87
2018-06-12T19:46:10.594Z,5.30
2018-06-12T19:48:44.931Z,5.50
2018-06-12T19:51:19.596Z,6.10
2018-06-12T19:53:54.121Z,5.77
2018-06-12T19:56:28.092Z,5.80
2018-06-12T19:59:02.634Z,5.90
2018-06-12T20:01:37.669Z,5.63
2018-06-12T20:04:12.304Z,5.90
2018-06-12T20:06:46.560Z,5.50
2018-06-12T20:09:21.286Z,6.43
2018-06-12T20:11:55.649Z,5.60
2018-06-12T20:14:30.112Z,6.17
2018-06-12T20:17:04.807Z,5.33
2018-06-12T20:19:39.012Z,4.73
2018-06-12T20:22:13.204Z,5.17
2018-06-12T20:24:47.494Z,5.53
2018-06-12T20:27:22.236Z,5.43
2018-06-12T20:29:56.710Z,5.40
2018-06-12T20:32:30.977Z,5.03
2018-06-12T20:35:05.321Z,3.40
2018-06-12T20:37:39.407Z,3.93
2018-06-12T20:40:13.539Z,3.40
2018-06-12T20:42:48.109Z,3.30
2018-06-12T20:45:21.901Z,3.30
2018-06-12T20:47:56.180Z,3.23
2018-06-12T20:50:30.192Z,3.07
2018-06-12T20:53:04.463Z,3.30
2018-06-12T20:55:38.509Z,4.00
2018-06-12T20:58:12.751Z,3.30
2018-06-12T21:00:46.766Z,3.50
2018-06-12T21:03:21.190Z,3.50
2018-06-12T21:05:55.221Z,3.43
2018-06-12T21:08:29.106Z,2.93
2018-06-12T21:11:10.102Z,3.50
2018-06-12T21:13:44.207Z,3.00
2018-06-12T21:16:18.326Z,3.90
2018-06-12T21:18:53.121Z,3.40
2018-06-12T21:21:27.494Z,3.07
2018-06-12T21:24:01.925Z,3.03
2018-06-12T21:26:35.868Z,2.90
2018-06-12T21:29:10.207Z,3.20
2018-06-12T21:31:44.321Z,3.20
2018-06-12T21:34:18.217Z,3.27
2018-06-12T21:36:52.357Z,3.03
2018-06-12T21:39:26.774Z,3.10
2018-06-12T21:42:00.826Z,3.40
2018-06-12T21:47:15.810Z,3.20
2018-06-12T21:49:49.698Z,3.00
2018-06-12T21:52:23.748Z,3.03
2018-06-12T21:54:57.630Z,3.40
2018-06-12T21:57:31.547Z,3.17
2018-06-12T22:00:07.136Z,3.53
2018-06-12T22:02:41.091Z,3.50
2018-06-12T22:05:15.160Z,2.80
2018-06-12T22:07:49.674Z,3.27
2018-06-12T22:10:24.240Z,3.60
2018-06-12T22:12:58.315Z,3.17
2018-06-12T22:15:32.375Z,3.30
2018-06-12T22:18:13.441Z,3.13
2018-06-12T22:20:47.268Z,3.00
2018-06-12T22:23:21.150Z,3.37
2018-06-12T22:25:55.347Z,3.30
2018-06-12T22:28:29.767Z,3.87
2018-06-12T22:31:03.826Z,3.03
2018-06-12T22:33:37.907Z,3.70
2018-06-12T22:36:12.094Z,3.33
2018-06-12T22:38:46.112Z,3.70
2018-06-12T22:41:20.225Z,3.10
2018-06-12T22:43:54.390Z,3.30
2018-06-12T22:46:28.134Z,3.00
2018-06-12T22:49:02.121Z,3.40
2018-06-12T22:51:36.013Z,3.13
2018-06-12T22:54:10.039Z,3.20
2018-06-12T22:56:44.125Z,3.30
2018-06-12T22:59:18.214Z,3.60
2018-06-12T23:01:52.294Z,3.60
2018-06-12T23:04:26.357Z,3.80
2018-06-12T23:07:00.370Z,3.57
2018-06-12T23:09:34.220Z,3.60
2018-06-12T23:12:08.130Z,3.83
2018-06-12T23:14:42.253Z,3.93
2018-06-12T23:17:16.333Z,4.03
2018-06-12T23:21:04.271Z,3.80
2018-06-12T23:23:38.316Z,4.67
2018-06-12T23:26:12.442Z,4.73
2018-06-12T23:28:53.196Z,4.40
2018-06-12T23:31:27.115Z,4.87
2018-06-12T23:34:00.936Z,4.27
2018-06-12T23:36:34.984Z,4.50
2018-06-12T23:39:08.921Z,4.20
2018-06-12T23:41:42.735Z,4.57
2018-06-12T23:44:16.906Z,4.27
2018-06-12T23:46:50.927Z,4.10
2018-06-12T23:49:25.199Z,4.27
2018-06-12T23:51:59.268Z,3.97
2018-06-12T23:54:33.160Z,4.40
2018-06-12T23:57:07.100Z,3.73
2018-06-12T23:59:40.952Z,4.23
